PWSweather.com
Personal Weather Stations
Station Observations
WESTON01
WestonSuperMareGB BS22 8RT

WestonSuperMareGB BS22 8RT

Lat: 51.351508, Lon: -2.933373

Elevation: 15

Station Type: Fine Offset WH1080

http://www.westonweather.co.uk

High Low Average
Temperature 73.5°F23.1°C 57.5°F14.2°C 64.6°F18.1°C
Dew Point 61.2°F16.2°C 46.6°F8.1°C 54.3°F12.4°C
Winds 16.7 mph 26.9 kmh 2.4 mph 3.9 kmh 8.0 mph WNW12.9 kmh WNW
Wind Gusts 26.2 mph42.2 kmh 4.2 mph6.8 kmh 12.0 mph19.3 kmh
Humidity 85% 54% 70%
Pressure 29.87 in1011.5 mb 29.75 in1007.5 mb -
Precipitation 0.00 in0.0 mm - -
Hour Temp Dew Point Humidity Winds Wind Gusts Pressure Precip Precip Rate Daily Precip Total
12:00 AM 61.4°F16.3°C 55.2°F12.9°C 80% 5.8 mph W9.3 kmh W 8.3 mph13.4 kmh 29.87 in1011.5 mb 0.00 in0.0 mm 0.00 in0.0 mm 0.00 in0.0 mm
12:05 AM 61.4°F16.3°C 55.2°F12.9°C 80% 4.9 mph WNW7.9 kmh WNW 8.3 mph13.4 kmh 29.87 in1011.5 mb 0.00 in0.0 mm 0.00 in0.0 mm 0.00 in0.0 mm
12:10 AM 61.3°F16.3°C 55.4°F13.0°C 81% 4.0 mph WNW6.4 kmh WNW 8.3 mph13.4 kmh 29.87 in1011.5 mb 0.00 in0.0 mm 0.00 in0.0 mm 0.00 in0.0 mm
12:15 AM 61.3°F16.3°C 55.4°F13.0°C 81% 4.2 mph W6.8 kmh W 6.5 mph10.5 kmh 29.87 in1011.5 mb 0.00 in0.0 mm 0.00 in0.0 mm 0.00 in0.0 mm
12:20 AM 61.3°F16.3°C 55.4°F13.0°C 81% 5.6 mph WNW9.0 kmh WNW 8.0 mph12.9 kmh 29.87 in1011.5 mb 0.00 in0.0 mm 0.00 in0.0 mm 0.00 in0.0 mm
12:25 AM 61.3°F16.3°C 55.4°F13.0°C 81% 4.9 mph WNW7.9 kmh WNW 8.0 mph12.9 kmh 29.87 in1011.5 mb 0.00 in0.0 mm 0.00 in0.0 mm 0.00 in0.0 mm
12:30 AM 61.3°F16.3°C 55.4°F13.0°C 81% 4.4 mph NW7.1 kmh NW 7.4 mph11.9 kmh 29.87 in1011.5 mb 0.00 in0.0 mm 0.00 in0.0 mm 0.00 in0.0 mm
12:35 AM 61.3°F16.3°C 55.4°F13.0°C 81% 5.1 mph WNW8.2 kmh WNW 7.7 mph12.4 kmh 29.87 in1011.5 mb 0.00 in0.0 mm 0.00 in0.0 mm 0.00 in0.0 mm
12:40 AM 61.3°F16.3°C 55.4°F13.0°C 81% 5.5 mph WNW8.9 kmh WNW 7.7 mph12.4 kmh 29.87 in1011.5 mb 0.00 in0.0 mm 0.00 in0.0 mm 0.00 in0.0 mm
12:45 AM 61.1°F16.2°C 55.2°F12.9°C 81% 4.9 mph WNW7.9 kmh WNW 7.7 mph12.4 kmh 29.87 in1011.5 mb 0.00 in0.0 mm 0.00 in0.0 mm 0.00 in0.0 mm
12:50 AM 61.1°F16.2°C 55.2°F12.9°C 81% 4.7 mph WNW7.6 kmh WNW 7.7 mph12.4 kmh 29.84 in1010.5 mb 0.00 in0.0 mm 0.00 in0.0 mm 0.00 in0.0 mm
12:55 AM 61.1°F16.2°C 55.5°F13.1°C 82% 4.8 mph WNW7.7 kmh WNW 7.7 mph12.4 kmh 29.84 in1010.5 mb 0.00 in0.0 mm 0.00 in0.0 mm 0.00 in0.0 mm
01:00 AM 61.1°F16.2°C 55.5°F13.1°C 82% 3.9 mph WNW6.3 kmh WNW 5.4 mph8.7 kmh 29.84 in1010.5 mb 0.00 in0.0 mm 0.00 in0.0 mm 0.00 in0.0 mm
01:05 AM 60.9°F16.1°C 55.4°F13.0°C 82% 4.5 mph WNW7.2 kmh WNW 7.1 mph11.4 kmh 29.84 in1010.5 mb 0.00 in0.0 mm 0.00 in0.0 mm 0.00 in0.0 mm
01:10 AM 60.9°F16.1°C 55.4°F13.0°C 82% 4.9 mph W7.9 kmh W 7.1 mph11.4 kmh 29.84 in1010.5 mb 0.00 in0.0 mm 0.00 in0.0 mm 0.00 in0.0 mm
01:15 AM 60.9°F16.1°C 55.4°F13.0°C 82% 4.8 mph W7.7 kmh W 7.4 mph11.9 kmh 29.84 in1010.5 mb 0.00 in0.0 mm 0.00 in0.0 mm 0.00 in0.0 mm
01:20 AM 60.9°F16.1°C 55.4°F13.0°C 82% 4.1 mph W6.6 kmh W 7.4 mph11.9 kmh 29.84 in1010.5 mb 0.00 in0.0 mm 0.00 in0.0 mm 0.00 in0.0 mm
01:25 AM 60.7°F15.9°C 55.2°F12.9°C 82% 3.7 mph WNW6.0 kmh WNW 7.4 mph11.9 kmh 29.84 in1010.5 mb 0.00 in0.0 mm 0.00 in0.0 mm 0.00 in0.0 mm
01:30 AM 60.7°F15.9°C 55.2°F12.9°C 82% 4.5 mph WNW7.2 kmh WNW 7.4 mph11.9 kmh 29.84 in1010.5 mb 0.00 in0.0 mm 0.00 in0.0 mm 0.00 in0.0 mm
01:35 AM 60.7°F15.9°C 55.2°F12.9°C 82% 4.9 mph WNW7.9 kmh WNW 7.1 mph11.4 kmh 29.84 in1010.5 mb 0.00 in0.0 mm 0.00 in0.0 mm 0.00 in0.0 mm
01:40 AM 60.7°F15.9°C 55.2°F12.9°C 82% 4.9 mph W7.9 kmh W 7.7 mph12.4 kmh 29.84 in1010.5 mb 0.00 in0.0 mm 0.00 in0.0 mm 0.00 in0.0 mm
01:45 AM 60.7°F15.9°C 55.2°F12.9°C 82% 4.8 mph WNW7.7 kmh WNW 7.7 mph12.4 kmh 29.84 in1010.5 mb 0.00 in0.0 mm 0.00 in0.0 mm 0.00 in0.0 mm
01:50 AM 60.7°F15.9°C 55.2°F12.9°C 82% 4.4 mph W7.1 kmh W 7.1 mph11.4 kmh 29.84 in1010.5 mb 0.00 in0.0 mm 0.00 in0.0 mm 0.00 in0.0 mm
01:55 AM 60.7°F15.9°C 55.5°F13.1°C 83% 3.6 mph W5.8 kmh W 7.1 mph11.4 kmh 29.84 in1010.5 mb 0.00 in0.0 mm 0.00 in0.0 mm 0.00 in0.0 mm
02:00 AM 60.7°F15.9°C 55.5°F13.1°C 83% 3.8 mph WNW6.1 kmh WNW 7.1 mph11.4 kmh 29.84 in1010.5 mb 0.00 in0.0 mm 0.00 in0.0 mm 0.00 in0.0 mm
02:05 AM 60.5°F15.8°C 55.3°F12.9°C 83% 5.0 mph WNW8.0 kmh WNW 8.6 mph13.8 kmh 29.84 in1010.5 mb 0.00 in0.0 mm 0.00 in0.0 mm 0.00 in0.0 mm
02:10 AM 60.5°F15.8°C 55.3°F12.9°C 83% 5.2 mph WNW8.4 kmh WNW 8.6 mph13.8 kmh 29.84 in1010.5 mb 0.00 in0.0 mm 0.00 in0.0 mm 0.00 in0.0 mm
02:15 AM 60.5°F15.8°C 55.3°F12.9°C 83% 4.7 mph WNW7.6 kmh WNW 8.3 mph13.4 kmh 29.84 in1010.5 mb 0.00 in0.0 mm 0.00 in0.0 mm 0.00 in0.0 mm
02:20 AM 60.5°F15.8°C 55.3°F12.9°C 83% 5.6 mph WNW9.0 kmh WNW 9.2 mph14.8 kmh 29.84 in1010.5 mb 0.00 in0.0 mm 0.00 in0.0 mm 0.00 in0.0 mm
02:25 AM 60.5°F15.8°C 55.3°F12.9°C 83% 6.7 mph NW10.8 kmh NW 9.2 mph14.8 kmh 29.84 in1010.5 mb 0.00 in0.0 mm 0.00 in0.0 mm 0.00 in0.0 mm
02:30 AM 60.5°F15.8°C 55.3°F12.9°C 83% 6.3 mph WNW10.1 kmh WNW 8.0 mph12.9 kmh 29.84 in1010.5 mb 0.00 in0.0 mm 0.00 in0.0 mm 0.00 in0.0 mm
02:35 AM 60.5°F15.8°C 55.3°F12.9°C 83% 5.4 mph W8.7 kmh W 7.7 mph12.4 kmh 29.84 in1010.5 mb 0.00 in0.0 mm 0.00 in0.0 mm 0.00 in0.0 mm
02:40 AM 60.5°F15.8°C 55.3°F12.9°C 83% 5.2 mph W8.4 kmh W 7.1 mph11.4 kmh 29.84 in1010.5 mb 0.00 in0.0 mm 0.00 in0.0 mm 0.00 in0.0 mm
02:45 AM 60.5°F15.8°C 55.3°F12.9°C 83% 5.0 mph W8.0 kmh W 8.6 mph13.8 kmh 29.84 in1010.5 mb 0.00 in0.0 mm 0.00 in0.0 mm 0.00 in0.0 mm
02:50 AM 60.5°F15.8°C 55.3°F12.9°C 83% 5.0 mph W8.0 kmh W 8.6 mph13.8 kmh 29.81 in1009.5 mb 0.00 in0.0 mm 0.00 in0.0 mm 0.00 in0.0 mm
02:55 AM 60.3°F15.7°C 55.2°F12.9°C 83% 4.2 mph W6.8 kmh W 6.5 mph10.5 kmh 29.81 in1009.5 mb 0.00 in0.0 mm 0.00 in0.0 mm 0.00 in0.0 mm
03:00 AM 60.3°F15.7°C 55.2°F12.9°C 83% 4.1 mph W6.6 kmh W 6.2 mph10.0 kmh 29.81 in1009.5 mb 0.00 in0.0 mm 0.00 in0.0 mm 0.00 in0.0 mm
03:05 AM 60.3°F15.7°C 55.2°F12.9°C 83% 4.4 mph W7.1 kmh W 6.2 mph10.0 kmh 29.81 in1009.5 mb 0.00 in0.0 mm 0.00 in0.0 mm 0.00 in0.0 mm
03:10 AM 60.2°F15.7°C 55.0°F12.8°C 83% 3.2 mph WSW5.1 kmh WSW 5.4 mph8.7 kmh 29.81 in1009.5 mb 0.00 in0.0 mm 0.00 in0.0 mm 0.00 in0.0 mm
03:15 AM 60.2°F15.7°C 55.0°F12.8°C 83% 3.1 mph W5.0 kmh W 5.4 mph8.7 kmh 29.81 in1009.5 mb 0.00 in0.0 mm 0.00 in0.0 mm 0.00 in0.0 mm
03:20 AM 60.3°F15.7°C 55.2°F12.9°C 83% 3.0 mph W4.8 kmh W 5.4 mph8.7 kmh 29.81 in1009.5 mb 0.00 in0.0 mm 0.00 in0.0 mm 0.00 in0.0 mm
03:25 AM 60.2°F15.7°C 55.3°F12.9°C 84% 3.0 mph W4.8 kmh W 7.1 mph11.4 kmh 29.81 in1009.5 mb 0.00 in0.0 mm 0.00 in0.0 mm 0.00 in0.0 mm
03:30 AM 60.2°F15.7°C 55.3°F12.9°C 84% 3.4 mph WNW5.5 kmh WNW 7.1 mph11.4 kmh 29.81 in1009.5 mb 0.00 in0.0 mm 0.00 in0.0 mm 0.00 in0.0 mm
03:35 AM 60.2°F15.7°C 55.3°F12.9°C 84% 3.0 mph WNW4.8 kmh WNW 5.4 mph8.7 kmh 29.81 in1009.5 mb 0.00 in0.0 mm 0.00 in0.0 mm 0.00 in0.0 mm
03:40 AM 60.2°F15.7°C 55.3°F12.9°C 84% 2.6 mph WNW4.2 kmh WNW 4.2 mph6.8 kmh 29.81 in1009.5 mb 0.00 in0.0 mm 0.00 in0.0 mm 0.00 in0.0 mm
03:45 AM 60.2°F15.7°C 55.3°F12.9°C 84% 4.0 mph NW6.4 kmh NW 9.2 mph14.8 kmh 29.81 in1009.5 mb 0.00 in0.0 mm 0.00 in0.0 mm 0.00 in0.0 mm
03:50 AM 60.2°F15.7°C 55.3°F12.9°C 84% 5.3 mph NW8.5 kmh NW 9.2 mph14.8 kmh 29.81 in1009.5 mb 0.00 in0.0 mm 0.00 in0.0 mm 0.00 in0.0 mm
03:55 AM 60.2°F15.7°C 55.3°F12.9°C 84% 4.6 mph NW7.4 kmh NW 5.7 mph9.2 kmh 29.81 in1009.5 mb 0.00 in0.0 mm 0.00 in0.0 mm 0.00 in0.0 mm
04:00 AM 60.2°F15.7°C 55.3°F12.9°C 84% 3.9 mph WNW6.3 kmh WNW 5.1 mph8.2 kmh 29.81 in1009.5 mb 0.00 in0.0 mm 0.00 in0.0 mm 0.00 in0.0 mm
04:05 AM 60.2°F15.7°C 55.3°F12.9°C 84% 2.8 mph W4.5 kmh W 4.8 mph7.7 kmh 29.81 in1009.5 mb 0.00 in0.0 mm 0.00 in0.0 mm 0.00 in0.0 mm
04:10 AM 60.2°F15.7°C 55.3°F12.9°C 84% 2.4 mph WNW3.9 kmh WNW 4.8 mph7.7 kmh 29.81 in1009.5 mb 0.00 in0.0 mm 0.00 in0.0 mm 0.00 in0.0 mm
04:15 AM 60.2°F15.7°C 55.3°F12.9°C 84% 3.6 mph WNW5.8 kmh WNW 5.4 mph8.7 kmh 29.81 in1009.5 mb 0.00 in0.0 mm 0.00 in0.0 mm 0.00 in0.0 mm
04:20 AM 60.2°F15.7°C 55.3°F12.9°C 84% 3.3 mph W5.3 kmh W 5.4 mph8.7 kmh 29.81 in1009.5 mb 0.00 in0.0 mm 0.00 in0.0 mm 0.00 in0.0 mm
04:25 AM 60.2°F15.7°C 55.3°F12.9°C 84% 3.0 mph W4.8 kmh W 4.5 mph7.2 kmh 29.81 in1009.5 mb 0.00 in0.0 mm 0.00 in0.0 mm 0.00 in0.0 mm
04:30 AM 60.2°F15.7°C 55.6°F13.1°C 85% 2.9 mph WNW4.7 kmh WNW 5.1 mph8.2 kmh 29.81 in1009.5 mb 0.00 in0.0 mm 0.00 in0.0 mm 0.00 in0.0 mm
04:35 AM 60.2°F15.7°C 55.6°F13.1°C 85% 3.4 mph WNW5.5 kmh WNW 5.7 mph9.2 kmh 29.81 in1009.5 mb 0.00 in0.0 mm 0.00 in0.0 mm 0.00 in0.0 mm
04:40 AM 60.2°F15.7°C 55.6°F13.1°C 85% 3.4 mph NW5.5 kmh NW 5.7 mph9.2 kmh 29.81 in1009.5 mb 0.00 in0.0 mm 0.00 in0.0 mm 0.00 in0.0 mm
04:45 AM 60.2°F15.7°C 55.6°F13.1°C 85% 2.8 mph WNW4.5 kmh WNW 4.5 mph7.2 kmh 29.81 in1009.5 mb 0.00 in0.0 mm 0.00 in0.0 mm 0.00 in0.0 mm
04:50 AM 60.2°F15.7°C 55.6°F13.1°C 85% 3.1 mph NW5.0 kmh NW 4.5 mph7.2 kmh 29.81 in1009.5 mb 0.00 in0.0 mm 0.00 in0.0 mm 0.00 in0.0 mm
04:55 AM 60.3°F15.7°C 55.8°F13.2°C 85% 3.5 mph WNW5.6 kmh WNW 4.5 mph7.2 kmh 29.81 in1009.5 mb 0.00 in0.0 mm 0.00 in0.0 mm 0.00 in0.0 mm
05:00 AM 60.3°F15.7°C 55.8°F13.2°C 85% 3.7 mph WNW6.0 kmh WNW 4.8 mph7.7 kmh 29.81 in1009.5 mb 0.00 in0.0 mm 0.00 in0.0 mm 0.00 in0.0 mm
05:05 AM 60.5°F15.8°C 56.0°F13.3°C 85% 4.4 mph WNW7.1 kmh WNW 5.4 mph8.7 kmh 29.81 in1009.5 mb 0.00 in0.0 mm 0.00 in0.0 mm 0.00 in0.0 mm
05:10 AM 60.5°F15.8°C 56.0°F13.3°C 85% 4.8 mph WNW7.7 kmh WNW 6.2 mph10.0 kmh 29.81 in1009.5 mb 0.00 in0.0 mm 0.00 in0.0 mm 0.00 in0.0 mm
05:15 AM 60.7°F15.9°C 56.2°F13.4°C 85% 4.3 mph WNW6.9 kmh WNW 6.2 mph10.0 kmh 29.81 in1009.5 mb 0.00 in0.0 mm 0.00 in0.0 mm 0.00 in0.0 mm
05:20 AM 60.7°F15.9°C 56.2°F13.4°C 85% 4.1 mph NW6.6 kmh NW 5.1 mph8.2 kmh 29.81 in1009.5 mb 0.00 in0.0 mm 0.00 in0.0 mm 0.00 in0.0 mm
05:25 AM 60.9°F16.1°C 56.3°F13.5°C 85% 4.4 mph NW7.1 kmh NW 5.1 mph8.2 kmh 29.81 in1009.5 mb 0.00 in0.0 mm 0.00 in0.0 mm 0.00 in0.0 mm
05:30 AM 61.1°F16.2°C 56.5°F13.6°C 85% 4.8 mph WNW7.7 kmh WNW 7.1 mph11.4 kmh 29.81 in1009.5 mb 0.00 in0.0 mm 0.00 in0.0 mm 0.00 in0.0 mm
05:35 AM 61.1°F16.2°C 56.5°F13.6°C 85% 4.5 mph W7.2 kmh W 7.1 mph11.4 kmh 29.81 in1009.5 mb 0.00 in0.0 mm 0.00 in0.0 mm 0.00 in0.0 mm
05:40 AM 61.3°F16.3°C 56.7°F13.7°C 85% 4.3 mph WNW6.9 kmh WNW 5.4 mph8.7 kmh 29.81 in1009.5 mb 0.00 in0.0 mm 0.00 in0.0 mm 0.00 in0.0 mm
05:45 AM 61.4°F16.3°C 56.6°F13.7°C 84% 4.0 mph NW6.4 kmh NW 5.7 mph9.2 kmh 29.81 in1009.5 mb 0.00 in0.0 mm 0.00 in0.0 mm 0.00 in0.0 mm
05:50 AM 61.6°F16.4°C 56.7°F13.7°C 84% 3.9 mph NW6.3 kmh NW 7.7 mph12.4 kmh 29.81 in1009.5 mb 0.00 in0.0 mm 0.00 in0.0 mm 0.00 in0.0 mm
05:55 AM 61.8°F16.6°C 56.9°F13.8°C 84% 4.3 mph NW6.9 kmh NW 7.7 mph12.4 kmh 29.81 in1009.5 mb 0.00 in0.0 mm 0.00 in0.0 mm 0.00 in0.0 mm
06:00 AM 62.0°F16.7°C 57.1°F13.9°C 84% 3.4 mph WNW5.5 kmh WNW 6.2 mph10.0 kmh 29.81 in1009.5 mb 0.00 in0.0 mm 0.00 in0.0 mm 0.00 in0.0 mm
06:05 AM 62.2°F16.8°C 56.9°F13.8°C 83% 3.3 mph W5.3 kmh W 6.2 mph10.0 kmh 29.81 in1009.5 mb 0.00 in0.0 mm 0.00 in0.0 mm 0.00 in0.0 mm
06:10 AM 62.2°F16.8°C 56.9°F13.8°C 83% 4.1 mph WNW6.6 kmh WNW 7.1 mph11.4 kmh 29.81 in1009.5 mb 0.00 in0.0 mm 0.00 in0.0 mm 0.00 in0.0 mm
06:15 AM 62.3°F16.8°C 57.1°F13.9°C 83% 4.8 mph WNW7.7 kmh WNW 8.6 mph13.8 kmh 29.81 in1009.5 mb 0.00 in0.0 mm 0.00 in0.0 mm 0.00 in0.0 mm
06:20 AM 62.5°F16.9°C 57.3°F14.1°C 83% 4.2 mph NW6.8 kmh NW 8.6 mph13.8 kmh 29.81 in1009.5 mb 0.00 in0.0 mm 0.00 in0.0 mm 0.00 in0.0 mm
06:25 AM 62.7°F17.1°C 57.1°F13.9°C 82% 3.2 mph WNW5.1 kmh WNW 4.8 mph7.7 kmh 29.81 in1009.5 mb 0.00 in0.0 mm 0.00 in0.0 mm 0.00 in0.0 mm
06:30 AM 62.9°F17.2°C 57.3°F14.1°C 82% 4.4 mph WNW7.1 kmh WNW 6.2 mph10.0 kmh 29.81 in1009.5 mb 0.00 in0.0 mm 0.00 in0.0 mm 0.00 in0.0 mm
06:35 AM 63.0°F17.2°C 57.5°F14.2°C 82% 4.5 mph WNW7.2 kmh WNW 6.2 mph10.0 kmh 29.78 in1008.5 mb 0.00 in0.0 mm 0.00 in0.0 mm 0.00 in0.0 mm
06:40 AM 63.4°F17.4°C 57.5°F14.2°C 81% 4.2 mph W6.8 kmh W 6.5 mph10.5 kmh 29.78 in1008.5 mb 0.00 in0.0 mm 0.00 in0.0 mm 0.00 in0.0 mm
06:45 AM 63.8°F17.7°C 57.8°F14.3°C 81% 5.4 mph WNW8.7 kmh WNW 8.3 mph13.4 kmh 29.78 in1008.5 mb 0.00 in0.0 mm 0.00 in0.0 mm 0.00 in0.0 mm
06:50 AM 64.0°F17.8°C 57.7°F14.3°C 80% 5.8 mph WNW9.3 kmh WNW 8.3 mph13.4 kmh 29.81 in1009.5 mb 0.00 in0.0 mm 0.00 in0.0 mm 0.00 in0.0 mm
06:55 AM 64.0°F17.8°C 57.7°F14.3°C 80% 5.2 mph NW8.4 kmh NW 8.3 mph13.4 kmh 29.81 in1009.5 mb 0.00 in0.0 mm 0.00 in0.0 mm 0.00 in0.0 mm
07:00 AM 64.0°F17.8°C 57.7°F14.3°C 80% 5.0 mph NW8.0 kmh NW 8.3 mph13.4 kmh 29.81 in1009.5 mb 0.00 in0.0 mm 0.00 in0.0 mm 0.00 in0.0 mm
07:05 AM 64.1°F17.8°C 57.8°F14.3°C 80% 4.5 mph WNW7.2 kmh WNW 5.7 mph9.2 kmh 29.81 in1009.5 mb 0.00 in0.0 mm 0.00 in0.0 mm 0.00 in0.0 mm
07:10 AM 64.5°F18.1°C 58.2°F14.6°C 80% 3.9 mph WNW6.3 kmh WNW 5.7 mph9.2 kmh 29.81 in1009.5 mb 0.00 in0.0 mm 0.00 in0.0 mm 0.00 in0.0 mm
07:15 AM 64.8°F18.2°C 58.2°F14.6°C 79% 4.3 mph WNW6.9 kmh WNW 8.3 mph13.4 kmh 29.81 in1009.5 mb 0.00 in0.0 mm 0.00 in0.0 mm 0.00 in0.0 mm
07:20 AM 65.0°F18.3°C 58.4°F14.7°C 79% 5.6 mph WNW9.0 kmh WNW 8.3 mph13.4 kmh 29.81 in1009.5 mb 0.00 in0.0 mm 0.00 in0.0 mm 0.00 in0.0 mm
07:25 AM 65.2°F18.4°C 58.2°F14.6°C 78% 5.4 mph W8.7 kmh W 8.0 mph12.9 kmh 29.81 in1009.5 mb 0.00 in0.0 mm 0.00 in0.0 mm 0.00 in0.0 mm
07:30 AM 65.4°F18.6°C 58.0°F14.4°C 77% 5.4 mph W8.7 kmh W 8.6 mph13.8 kmh 29.81 in1009.5 mb 0.00 in0.0 mm 0.00 in0.0 mm 0.00 in0.0 mm
07:35 AM 65.4°F18.6°C 58.0°F14.4°C 77% 5.9 mph WNW9.5 kmh WNW 9.8 mph15.8 kmh 29.78 in1008.5 mb 0.00 in0.0 mm 0.00 in0.0 mm 0.00 in0.0 mm
07:40 AM 65.6°F18.7°C 58.2°F14.6°C 77% 5.4 mph NW8.7 kmh NW 9.8 mph15.8 kmh 29.78 in1008.5 mb 0.00 in0.0 mm 0.00 in0.0 mm 0.00 in0.0 mm
07:45 AM 65.6°F18.7°C 58.2°F14.6°C 77% 5.2 mph NW8.4 kmh NW 8.6 mph13.8 kmh 29.78 in1008.5 mb 0.00 in0.0 mm 0.00 in0.0 mm 0.00 in0.0 mm
07:50 AM 65.6°F18.7°C 58.2°F14.6°C 77% 5.8 mph WNW9.3 kmh WNW 8.6 mph13.8 kmh 29.78 in1008.5 mb 0.00 in0.0 mm 0.00 in0.0 mm 0.00 in0.0 mm
07:55 AM 65.6°F18.7°C 58.2°F14.6°C 77% 6.2 mph W10.0 kmh W 11.6 mph18.7 kmh 29.78 in1008.5 mb 0.00 in0.0 mm 0.00 in0.0 mm 0.00 in0.0 mm
08:00 AM 65.8°F18.8°C 58.3°F14.6°C 77% 5.4 mph WNW8.7 kmh WNW 11.6 mph18.7 kmh 29.78 in1008.5 mb 0.00 in0.0 mm 0.00 in0.0 mm 0.00 in0.0 mm
08:05 AM 65.8°F18.8°C 58.0°F14.4°C 76% 5.8 mph NW9.3 kmh NW 8.0 mph12.9 kmh 29.78 in1008.5 mb 0.00 in0.0 mm 0.00 in0.0 mm 0.00 in0.0 mm
08:10 AM 66.1°F18.9°C 58.7°F14.8°C 77% 5.8 mph NW9.3 kmh NW 8.0 mph12.9 kmh 29.78 in1008.5 mb 0.00 in0.0 mm 0.00 in0.0 mm 0.00 in0.0 mm
08:15 AM 66.5°F19.2°C 58.7°F14.8°C 76% 4.3 mph NW6.9 kmh NW 7.1 mph11.4 kmh 29.78 in1008.5 mb 0.00 in0.0 mm 0.00 in0.0 mm 0.00 in0.0 mm
08:20 AM 66.7°F19.3°C 58.8°F14.9°C 76% 4.5 mph NW7.2 kmh NW 8.6 mph13.8 kmh 29.81 in1009.5 mb 0.00 in0.0 mm 0.00 in0.0 mm 0.00 in0.0 mm
08:25 AM 66.7°F19.3°C 58.8°F14.9°C 76% 7.4 mph W11.9 kmh W 11.6 mph18.7 kmh 29.81 in1009.5 mb 0.00 in0.0 mm 0.00 in0.0 mm 0.00 in0.0 mm
08:30 AM 66.7°F19.3°C 58.8°F14.9°C 76% 7.9 mph W12.7 kmh W 11.6 mph18.7 kmh 29.81 in1009.5 mb 0.00 in0.0 mm 0.00 in0.0 mm 0.00 in0.0 mm
08:35 AM 66.7°F19.3°C 58.8°F14.9°C 76% 6.0 mph WNW9.7 kmh WNW 11.6 mph18.7 kmh 29.78 in1008.5 mb 0.00 in0.0 mm 0.00 in0.0 mm 0.00 in0.0 mm
08:40 AM 66.7°F19.3°C 58.8°F14.9°C 76% 5.0 mph W8.0 kmh W 8.0 mph12.9 kmh 29.78 in1008.5 mb 0.00 in0.0 mm 0.00 in0.0 mm 0.00 in0.0 mm
08:45 AM 66.8°F19.3°C 58.6°F14.8°C 75% 6.4 mph W10.3 kmh W 13.4 mph21.6 kmh 29.78 in1008.5 mb 0.00 in0.0 mm 0.00 in0.0 mm 0.00 in0.0 mm
08:50 AM 67.4°F19.7°C 59.2°F15.1°C 75% 6.9 mph W11.1 kmh W 13.4 mph21.6 kmh 29.81 in1009.5 mb 0.00 in0.0 mm 0.00 in0.0 mm 0.00 in0.0 mm
08:55 AM 67.4°F19.7°C 58.8°F14.9°C 74% 7.2 mph W11.6 kmh W 10.1 mph16.3 kmh 29.81 in1009.5 mb 0.00 in0.0 mm 0.00 in0.0 mm 0.00 in0.0 mm
09:00 AM 67.4°F19.7°C 58.8°F14.9°C 74% 6.2 mph W10.0 kmh W 10.1 mph16.3 kmh 29.81 in1009.5 mb 0.00 in0.0 mm 0.00 in0.0 mm 0.00 in0.0 mm
09:05 AM 67.2°F19.6°C 58.6°F14.8°C 74% 5.2 mph WNW8.4 kmh WNW 10.1 mph16.3 kmh 29.81 in1009.5 mb 0.00 in0.0 mm 0.00 in0.0 mm 0.00 in0.0 mm
09:10 AM 67.4°F19.7°C 58.8°F14.9°C 74% 4.7 mph WNW7.6 kmh WNW 8.3 mph13.4 kmh 29.78 in1008.5 mb 0.00 in0.0 mm 0.00 in0.0 mm 0.00 in0.0 mm
09:15 AM 67.7°F19.8°C 59.1°F15.1°C 74% 4.7 mph WNW7.6 kmh WNW 8.3 mph13.4 kmh 29.78 in1008.5 mb 0.00 in0.0 mm 0.00 in0.0 mm 0.00 in0.0 mm
09:20 AM 67.7°F19.8°C 59.1°F15.1°C 74% 4.5 mph W7.2 kmh W 8.3 mph13.4 kmh 29.78 in1008.5 mb 0.00 in0.0 mm 0.00 in0.0 mm 0.00 in0.0 mm
09:25 AM 67.9°F19.9°C 59.3°F15.2°C 74% 5.8 mph WSW9.3 kmh WSW 8.6 mph13.8 kmh 29.78 in1008.5 mb 0.00 in0.0 mm 0.00 in0.0 mm 0.00 in0.0 mm
09:30 AM 68.1°F20.1°C 59.5°F15.3°C 74% 6.5 mph WSW10.5 kmh WSW 9.8 mph15.8 kmh 29.78 in1008.5 mb 0.00 in0.0 mm 0.00 in0.0 mm 0.00 in0.0 mm
09:35 AM 68.3°F20.2°C 59.3°F15.2°C 73% 5.6 mph W9.0 kmh W 9.8 mph15.8 kmh 29.78 in1008.5 mb 0.00 in0.0 mm 0.00 in0.0 mm 0.00 in0.0 mm
09:40 AM 68.4°F20.2°C 59.5°F15.3°C 73% 6.9 mph W11.1 kmh W 10.4 mph16.7 kmh 29.78 in1008.5 mb 0.00 in0.0 mm 0.00 in0.0 mm 0.00 in0.0 mm
09:45 AM 68.4°F20.2°C 59.5°F15.3°C 73% 8.3 mph WSW13.4 kmh WSW 10.4 mph16.7 kmh 29.78 in1008.5 mb 0.00 in0.0 mm 0.00 in0.0 mm 0.00 in0.0 mm
09:50 AM 68.6°F20.3°C 59.2°F15.1°C 72% 7.3 mph W11.7 kmh W 10.1 mph16.3 kmh 29.78 in1008.5 mb 0.00 in0.0 mm 0.00 in0.0 mm 0.00 in0.0 mm
09:55 AM 68.8°F20.4°C 59.4°F15.2°C 72% 7.8 mph WSW12.6 kmh WSW 11.6 mph18.7 kmh 29.78 in1008.5 mb 0.00 in0.0 mm 0.00 in0.0 mm 0.00 in0.0 mm
10:00 AM 69.3°F20.7°C 60.3°F15.7°C 73% 8.4 mph WSW13.5 kmh WSW 11.6 mph18.7 kmh 29.78 in1008.5 mb 0.00 in0.0 mm 0.00 in0.0 mm 0.00 in0.0 mm
10:05 AM 69.3°F20.7°C 60.3°F15.7°C 73% 8.5 mph WSW13.7 kmh WSW 11.6 mph18.7 kmh 29.78 in1008.5 mb 0.00 in0.0 mm 0.00 in0.0 mm 0.00 in0.0 mm
10:10 AM 70.4°F21.3°C 60.6°F15.9°C 71% 9.4 mph W15.1 kmh W 14.6 mph23.5 kmh 29.78 in1008.5 mb 0.00 in0.0 mm 0.00 in0.0 mm 0.00 in0.0 mm
10:15 AM 71.3°F21.8°C 61.0°F16.1°C 70% 8.9 mph W14.3 kmh W 14.6 mph23.5 kmh 29.78 in1008.5 mb 0.00 in0.0 mm 0.00 in0.0 mm 0.00 in0.0 mm
10:20 AM 71.5°F21.9°C 61.2°F16.2°C 70% 8.9 mph WNW14.3 kmh WNW 13.4 mph21.6 kmh 29.78 in1008.5 mb 0.00 in0.0 mm 0.00 in0.0 mm 0.00 in0.0 mm
10:25 AM 71.5°F21.9°C 61.2°F16.2°C 70% 8.7 mph WNW14.0 kmh WNW 13.4 mph21.6 kmh 29.78 in1008.5 mb 0.00 in0.0 mm 0.00 in0.0 mm 0.00 in0.0 mm
10:30 AM 72.2°F22.3°C 61.1°F16.2°C 68% 7.4 mph WNW11.9 kmh WNW 10.1 mph16.3 kmh 29.78 in1008.5 mb 0.00 in0.0 mm 0.00 in0.0 mm 0.00 in0.0 mm
10:35 AM 72.1°F22.3°C 60.9°F16.1°C 68% 9.2 mph WNW14.8 kmh WNW 14.6 mph23.5 kmh 29.78 in1008.5 mb 0.00 in0.0 mm 0.00 in0.0 mm 0.00 in0.0 mm
10:40 AM 71.3°F21.8°C 60.2°F15.7°C 68% 10.2 mph W16.4 kmh W 14.6 mph23.5 kmh 29.78 in1008.5 mb 0.00 in0.0 mm 0.00 in0.0 mm 0.00 in0.0 mm
10:45 AM 71.0°F21.7°C 59.9°F15.5°C 68% 10.4 mph W16.7 kmh W 14.3 mph23.0 kmh 29.78 in1008.5 mb 0.00 in0.0 mm 0.00 in0.0 mm 0.00 in0.0 mm
10:50 AM 71.0°F21.7°C 59.9°F15.5°C 68% 10.9 mph WNW17.5 kmh WNW 16.1 mph25.9 kmh 29.78 in1008.5 mb 0.00 in0.0 mm 0.00 in0.0 mm 0.00 in0.0 mm
10:55 AM 70.8°F21.6°C 59.7°F15.4°C 68% 9.4 mph WNW15.1 kmh WNW 17.0 mph27.4 kmh 29.78 in1008.5 mb 0.00 in0.0 mm 0.00 in0.0 mm 0.00 in0.0 mm
11:00 AM 71.2°F21.8°C 59.6°F15.3°C 67% 9.5 mph W15.3 kmh W 17.0 mph27.4 kmh 29.78 in1008.5 mb 0.00 in0.0 mm 0.00 in0.0 mm 0.00 in0.0 mm
11:05 AM 71.2°F21.8°C 59.6°F15.3°C 67% 11.0 mph W17.7 kmh W 17.0 mph27.4 kmh 29.78 in1008.5 mb 0.00 in0.0 mm 0.00 in0.0 mm 0.00 in0.0 mm
11:10 AM 71.3°F21.8°C 59.8°F15.4°C 67% 11.3 mph W18.2 kmh W 14.9 mph24.0 kmh 29.78 in1008.5 mb 0.00 in0.0 mm 0.00 in0.0 mm 0.00 in0.0 mm
11:15 AM 71.3°F21.8°C 59.4°F15.2°C 66% 12.2 mph W19.6 kmh W 17.3 mph27.8 kmh 29.78 in1008.5 mb 0.00 in0.0 mm 0.00 in0.0 mm 0.00 in0.0 mm
11:20 AM 71.0°F21.7°C 59.0°F15.0°C 66% 11.4 mph W18.3 kmh W 17.3 mph27.8 kmh 29.78 in1008.5 mb 0.00 in0.0 mm 0.00 in0.0 mm 0.00 in0.0 mm
11:25 AM 70.8°F21.6°C 58.4°F14.7°C 65% 7.6 mph W12.2 kmh W 10.1 mph16.3 kmh 29.78 in1008.5 mb 0.00 in0.0 mm 0.00 in0.0 mm 0.00 in0.0 mm
11:30 AM 71.0°F21.7°C 58.6°F14.8°C 65% 8.6 mph WSW13.8 kmh WSW 14.3 mph23.0 kmh 29.78 in1008.5 mb 0.00 in0.0 mm 0.00 in0.0 mm 0.00 in0.0 mm
11:35 AM 70.6°F21.4°C 58.3°F14.6°C 65% 11.3 mph W18.2 kmh W 16.4 mph26.4 kmh 29.78 in1008.5 mb 0.00 in0.0 mm 0.00 in0.0 mm 0.00 in0.0 mm
11:40 AM 70.6°F21.4°C 58.3°F14.6°C 65% 10.2 mph W16.4 kmh W 16.4 mph26.4 kmh 29.78 in1008.5 mb 0.00 in0.0 mm 0.00 in0.0 mm 0.00 in0.0 mm
11:45 AM 70.6°F21.4°C 58.3°F14.6°C 65% 8.7 mph W14.0 kmh W 11.9 mph19.2 kmh 29.78 in1008.5 mb 0.00 in0.0 mm 0.00 in0.0 mm 0.00 in0.0 mm
11:50 AM 70.6°F21.4°C 58.3°F14.6°C 65% 10.9 mph WSW17.5 kmh WSW 14.6 mph23.5 kmh 29.78 in1008.5 mb 0.00 in0.0 mm 0.00 in0.0 mm 0.00 in0.0 mm
11:55 AM 70.6°F21.4°C 58.3°F14.6°C 65% 11.1 mph WSW17.9 kmh WSW 14.6 mph23.5 kmh 29.78 in1008.5 mb 0.00 in0.0 mm 0.00 in0.0 mm 0.00 in0.0 mm
12:00 PM 70.6°F21.4°C 58.3°F14.6°C 65% 11.6 mph WSW18.7 kmh WSW 17.3 mph27.8 kmh 29.78 in1008.5 mb 0.00 in0.0 mm 0.00 in0.0 mm 0.00 in0.0 mm
12:05 PM 70.6°F21.4°C 58.3°F14.6°C 65% 13.3 mph W21.4 kmh W 18.1 mph29.1 kmh 29.78 in1008.5 mb 0.00 in0.0 mm 0.00 in0.0 mm 0.00 in0.0 mm
12:10 PM 70.4°F21.3°C 58.1°F14.5°C 65% 13.3 mph W21.4 kmh W 18.1 mph29.1 kmh 29.78 in1008.5 mb 0.00 in0.0 mm 0.00 in0.0 mm 0.00 in0.0 mm
12:15 PM 70.8°F21.6°C 58.4°F14.7°C 65% 11.9 mph W19.2 kmh W 14.3 mph23.0 kmh 29.78 in1008.5 mb 0.00 in0.0 mm 0.00 in0.0 mm 0.00 in0.0 mm
12:20 PM 71.0°F21.7°C 58.6°F14.8°C 65% 12.6 mph W20.3 kmh W 15.8 mph25.4 kmh 29.78 in1008.5 mb 0.00 in0.0 mm 0.00 in0.0 mm 0.00 in0.0 mm
12:25 PM 71.5°F21.9°C 59.1°F15.1°C 65% 11.4 mph WSW18.3 kmh WSW 15.8 mph25.4 kmh 29.78 in1008.5 mb 0.00 in0.0 mm 0.00 in0.0 mm 0.00 in0.0 mm
12:30 PM 72.1°F22.3°C 59.2°F15.1°C 64% 8.8 mph W14.2 kmh W 15.8 mph25.4 kmh 29.78 in1008.5 mb 0.00 in0.0 mm 0.00 in0.0 mm 0.00 in0.0 mm
12:35 PM 71.5°F21.9°C 58.2°F14.6°C 63% 11.3 mph W18.2 kmh W 21.1 mph34.0 kmh 29.78 in1008.5 mb 0.00 in0.0 mm 0.00 in0.0 mm 0.00 in0.0 mm
12:40 PM 71.5°F21.9°C 58.2°F14.6°C 63% 14.2 mph WSW22.9 kmh WSW 21.1 mph34.0 kmh 29.78 in1008.5 mb 0.00 in0.0 mm 0.00 in0.0 mm 0.00 in0.0 mm
12:45 PM 71.7°F22.1°C 58.0°F14.4°C 62% 12.4 mph WSW20.0 kmh WSW 18.4 mph29.6 kmh 29.78 in1008.5 mb 0.00 in0.0 mm 0.00 in0.0 mm 0.00 in0.0 mm
12:50 PM 71.7°F22.1°C 58.0°F14.4°C 62% 12.6 mph WSW20.3 kmh WSW 18.7 mph30.1 kmh 29.78 in1008.5 mb 0.00 in0.0 mm 0.00 in0.0 mm 0.00 in0.0 mm
12:55 PM 71.9°F22.2°C 58.1°F14.5°C 62% 13.0 mph W20.9 kmh W 18.7 mph30.1 kmh 29.78 in1008.5 mb 0.00 in0.0 mm 0.00 in0.0 mm 0.00 in0.0 mm
01:00 PM 72.2°F22.3°C 58.0°F14.4°C 61% 12.1 mph W19.5 kmh W 16.1 mph25.9 kmh 29.78 in1008.5 mb 0.00 in0.0 mm 0.00 in0.0 mm 0.00 in0.0 mm
01:05 PM 72.4°F22.4°C 58.2°F14.6°C 61% 11.1 mph WNW17.9 kmh WNW 14.6 mph23.5 kmh 29.78 in1008.5 mb 0.00 in0.0 mm 0.00 in0.0 mm 0.00 in0.0 mm
01:10 PM 72.6°F22.6°C 58.4°F14.7°C 61% 9.4 mph WNW15.1 kmh WNW 16.1 mph25.9 kmh 29.78 in1008.5 mb 0.00 in0.0 mm 0.00 in0.0 mm 0.00 in0.0 mm
01:15 PM 73.1°F22.8°C 58.4°F14.7°C 60% 8.9 mph WNW14.3 kmh WNW 16.1 mph25.9 kmh 29.78 in1008.5 mb 0.00 in0.0 mm 0.00 in0.0 mm 0.00 in0.0 mm
01:20 PM 73.5°F23.1°C 59.2°F15.1°C 61% 9.6 mph W15.4 kmh W 13.1 mph21.1 kmh 29.78 in1008.5 mb 0.00 in0.0 mm 0.00 in0.0 mm 0.00 in0.0 mm
01:25 PM 73.3°F22.9°C 58.6°F14.8°C 60% 10.6 mph W17.1 kmh W 16.7 mph26.9 kmh 29.78 in1008.5 mb 0.00 in0.0 mm 0.00 in0.0 mm 0.00 in0.0 mm
01:30 PM 72.9°F22.7°C 58.7°F14.8°C 61% 12.3 mph W19.8 kmh W 17.3 mph27.8 kmh 29.78 in1008.5 mb 0.00 in0.0 mm 0.00 in0.0 mm 0.00 in0.0 mm
01:35 PM 72.4°F22.4°C 57.7°F14.3°C 60% 12.7 mph W20.4 kmh W 20.5 mph33.0 kmh 29.78 in1008.5 mb 0.00 in0.0 mm 0.00 in0.0 mm 0.00 in0.0 mm
01:40 PM 72.2°F22.3°C 57.6°F14.2°C 60% 12.3 mph WNW19.8 kmh WNW 20.5 mph33.0 kmh 29.78 in1008.5 mb 0.00 in0.0 mm 0.00 in0.0 mm 0.00 in0.0 mm
01:45 PM 71.9°F22.2°C 57.2°F14.0°C 60% 12.6 mph WNW20.3 kmh WNW 17.0 mph27.4 kmh 29.78 in1008.5 mb 0.00 in0.0 mm 0.00 in0.0 mm 0.00 in0.0 mm
01:50 PM 71.9°F22.2°C 57.2°F14.0°C 60% 11.8 mph WNW19.0 kmh WNW 17.0 mph27.4 kmh 29.78 in1008.5 mb 0.00 in0.0 mm 0.00 in0.0 mm 0.00 in0.0 mm
01:55 PM 71.7°F22.1°C 57.1°F13.9°C 60% 12.9 mph WNW20.8 kmh WNW 16.4 mph26.4 kmh 29.78 in1008.5 mb 0.00 in0.0 mm 0.00 in0.0 mm 0.00 in0.0 mm
02:00 PM 71.0°F21.7°C 56.4°F13.6°C 60% 13.4 mph W21.6 kmh W 17.6 mph28.3 kmh 29.78 in1008.5 mb 0.00 in0.0 mm 0.00 in0.0 mm 0.00 in0.0 mm
02:05 PM 70.8°F21.6°C 56.2°F13.4°C 60% 13.1 mph W21.1 kmh W 17.6 mph28.3 kmh 29.78 in1008.5 mb 0.00 in0.0 mm 0.00 in0.0 mm 0.00 in0.0 mm
02:10 PM 70.6°F21.4°C 56.0°F13.3°C 60% 16.2 mph WNW26.1 kmh WNW 23.2 mph37.3 kmh 29.78 in1008.5 mb 0.00 in0.0 mm 0.00 in0.0 mm 0.00 in0.0 mm
02:15 PM 70.4°F21.3°C 55.9°F13.3°C 60% 16.7 mph W26.9 kmh W 23.2 mph37.3 kmh 29.78 in1008.5 mb 0.00 in0.0 mm 0.00 in0.0 mm 0.00 in0.0 mm
02:20 PM 70.6°F21.4°C 56.0°F13.3°C 60% 14.1 mph W22.7 kmh W 19.3 mph31.1 kmh 29.75 in1007.5 mb 0.00 in0.0 mm 0.00 in0.0 mm 0.00 in0.0 mm
02:25 PM 70.6°F21.4°C 55.6°F13.1°C 59% 13.3 mph WNW21.4 kmh WNW 17.6 mph28.3 kmh 29.75 in1007.5 mb 0.00 in0.0 mm 0.00 in0.0 mm 0.00 in0.0 mm
02:30 PM 70.6°F21.4°C 55.6°F13.1°C 59% 15.3 mph WNW24.6 kmh WNW 19.3 mph31.1 kmh 29.75 in1007.5 mb 0.00 in0.0 mm 0.00 in0.0 mm 0.00 in0.0 mm
02:35 PM 69.7°F20.9°C 54.7°F12.6°C 59% 16.5 mph WNW26.6 kmh WNW 21.4 mph34.4 kmh 29.75 in1007.5 mb 0.00 in0.0 mm 0.00 in0.0 mm 0.00 in0.0 mm
02:40 PM 69.7°F20.9°C 54.7°F12.6°C 59% 14.5 mph WNW23.3 kmh WNW 21.4 mph34.4 kmh 29.75 in1007.5 mb 0.00 in0.0 mm 0.00 in0.0 mm 0.00 in0.0 mm
02:45 PM 69.3°F20.7°C 54.4°F12.4°C 59% 13.7 mph W22.0 kmh W 26.2 mph42.2 kmh 29.75 in1007.5 mb 0.00 in0.0 mm 0.00 in0.0 mm 0.00 in0.0 mm
02:50 PM 69.3°F20.7°C 54.4°F12.4°C 59% 15.5 mph W24.9 kmh W 26.2 mph42.2 kmh 29.78 in1008.5 mb 0.00 in0.0 mm 0.00 in0.0 mm 0.00 in0.0 mm
02:55 PM 68.8°F20.4°C 53.9°F12.2°C 59% 15.4 mph WNW24.8 kmh WNW 20.5 mph33.0 kmh 29.78 in1008.5 mb 0.00 in0.0 mm 0.00 in0.0 mm 0.00 in0.0 mm
03:00 PM 68.8°F20.4°C 53.9°F12.2°C 59% 13.2 mph WNW21.2 kmh WNW 17.3 mph27.8 kmh 29.78 in1008.5 mb 0.00 in0.0 mm 0.00 in0.0 mm 0.00 in0.0 mm
03:05 PM 69.0°F20.6°C 53.6°F12.0°C 58% 11.2 mph WNW18.0 kmh WNW 24.1 mph38.8 kmh 29.78 in1008.5 mb 0.00 in0.0 mm 0.00 in0.0 mm 0.00 in0.0 mm
03:10 PM 69.2°F20.7°C 53.8°F12.1°C 58% 12.2 mph W19.6 kmh W 24.1 mph38.8 kmh 29.78 in1008.5 mb 0.00 in0.0 mm 0.00 in0.0 mm 0.00 in0.0 mm
03:15 PM 69.0°F20.6°C 53.1°F11.7°C 57% 14.4 mph W23.2 kmh W 19.0 mph30.6 kmh 29.78 in1008.5 mb 0.00 in0.0 mm 0.00 in0.0 mm 0.00 in0.0 mm
03:20 PM 68.8°F20.4°C 53.0°F11.7°C 57% 11.6 mph W18.7 kmh W 17.3 mph27.8 kmh 29.78 in1008.5 mb 0.00 in0.0 mm 0.00 in0.0 mm 0.00 in0.0 mm
03:25 PM 68.8°F20.4°C 53.0°F11.7°C 57% 9.8 mph W15.8 kmh W 14.6 mph23.5 kmh 29.78 in1008.5 mb 0.00 in0.0 mm 0.00 in0.0 mm 0.00 in0.0 mm
03:30 PM 68.6°F20.3°C 52.8°F11.6°C 57% 10.1 mph W16.3 kmh W 14.6 mph23.5 kmh 29.78 in1008.5 mb 0.00 in0.0 mm 0.00 in0.0 mm 0.00 in0.0 mm
03:35 PM 68.8°F20.4°C 53.0°F11.7°C 57% 9.0 mph W14.5 kmh W 11.6 mph18.7 kmh 29.78 in1008.5 mb 0.00 in0.0 mm 0.00 in0.0 mm 0.00 in0.0 mm
03:40 PM 69.0°F20.6°C 52.6°F11.4°C 56% 12.5 mph WNW20.1 kmh WNW 22.9 mph36.9 kmh 29.78 in1008.5 mb 0.00 in0.0 mm 0.00 in0.0 mm 0.00 in0.0 mm
03:45 PM 68.8°F20.4°C 52.5°F11.4°C 56% 13.6 mph WNW21.9 kmh WNW 22.9 mph36.9 kmh 29.78 in1008.5 mb 0.00 in0.0 mm 0.00 in0.0 mm 0.00 in0.0 mm
03:50 PM 69.0°F20.6°C 52.6°F11.4°C 56% 11.5 mph W18.5 kmh W 16.4 mph26.4 kmh 29.78 in1008.5 mb 0.00 in0.0 mm 0.00 in0.0 mm 0.00 in0.0 mm
03:55 PM 69.3°F20.7°C 52.5°F11.4°C 55% 10.0 mph W16.1 kmh W 13.1 mph21.1 kmh 29.78 in1008.5 mb 0.00 in0.0 mm 0.00 in0.0 mm 0.00 in0.0 mm
04:00 PM 69.3°F20.7°C 52.5°F11.4°C 55% 10.4 mph W16.7 kmh W 13.7 mph22.0 kmh 29.78 in1008.5 mb 0.00 in0.0 mm 0.00 in0.0 mm 0.00 in0.0 mm
04:05 PM 69.3°F20.7°C 52.0°F11.1°C 54% 10.7 mph W17.2 kmh W 14.3 mph23.0 kmh 29.78 in1008.5 mb 0.00 in0.0 mm 0.00 in0.0 mm 0.00 in0.0 mm
04:10 PM 68.8°F20.4°C 52.0°F11.1°C 55% 12.2 mph W19.6 kmh W 19.0 mph30.6 kmh 29.78 in1008.5 mb 0.00 in0.0 mm 0.00 in0.0 mm 0.00 in0.0 mm
04:15 PM 68.6°F20.3°C 51.3°F10.7°C 54% 13.0 mph WNW20.9 kmh WNW 19.0 mph30.6 kmh 29.78 in1008.5 mb 0.00 in0.0 mm 0.00 in0.0 mm 0.00 in0.0 mm
04:20 PM 68.6°F20.3°C 51.3°F10.7°C 54% 10.9 mph WNW17.5 kmh WNW 19.0 mph30.6 kmh 29.78 in1008.5 mb 0.00 in0.0 mm 0.00 in0.0 mm 0.00 in0.0 mm
04:25 PM 68.6°F20.3°C 51.3°F10.7°C 54% 9.6 mph WNW15.4 kmh WNW 15.8 mph25.4 kmh 29.78 in1008.5 mb 0.00 in0.0 mm 0.00 in0.0 mm 0.00 in0.0 mm
04:30 PM 69.2°F20.7°C 51.8°F11.0°C 54% 12.2 mph WNW19.6 kmh WNW 17.0 mph27.4 kmh 29.78 in1008.5 mb 0.00 in0.0 mm 0.00 in0.0 mm 0.00 in0.0 mm
04:35 PM 69.2°F20.7°C 52.3°F11.3°C 55% 12.7 mph WNW20.4 kmh WNW 17.0 mph27.4 kmh 29.78 in1008.5 mb 0.00 in0.0 mm 0.00 in0.0 mm 0.00 in0.0 mm
04:40 PM 68.6°F20.3°C 51.8°F11.0°C 55% 13.7 mph WSW22.0 kmh WSW 22.6 mph36.4 kmh 29.78 in1008.5 mb 0.00 in0.0 mm 0.00 in0.0 mm 0.00 in0.0 mm
04:45 PM 68.4°F20.2°C 52.1°F11.2°C 56% 13.8 mph WSW22.2 kmh WSW 22.6 mph36.4 kmh 29.78 in1008.5 mb 0.00 in0.0 mm 0.00 in0.0 mm 0.00 in0.0 mm
04:50 PM 68.6°F20.3°C 52.3°F11.3°C 56% 11.4 mph W18.3 kmh W 16.1 mph25.9 kmh 29.78 in1008.5 mb 0.00 in0.0 mm 0.00 in0.0 mm 0.00 in0.0 mm
04:55 PM 68.6°F20.3°C 52.3°F11.3°C 56% 12.2 mph W19.6 kmh W 19.6 mph31.5 kmh 29.78 in1008.5 mb 0.00 in0.0 mm 0.00 in0.0 mm 0.00 in0.0 mm
05:00 PM 68.6°F20.3°C 52.3°F11.3°C 56% 13.2 mph W21.2 kmh W 19.6 mph31.5 kmh 29.78 in1008.5 mb 0.00 in0.0 mm 0.00 in0.0 mm 0.00 in0.0 mm
05:05 PM 68.6°F20.3°C 52.3°F11.3°C 56% 10.7 mph W17.2 kmh W 13.7 mph22.0 kmh 29.75 in1007.5 mb 0.00 in0.0 mm 0.00 in0.0 mm 0.00 in0.0 mm
05:10 PM 68.3°F20.2°C 52.0°F11.1°C 56% 11.6 mph WNW18.7 kmh WNW 16.1 mph25.9 kmh 29.75 in1007.5 mb 0.00 in0.0 mm 0.00 in0.0 mm 0.00 in0.0 mm
05:15 PM 68.3°F20.2°C 52.0°F11.1°C 56% 12.0 mph WNW19.3 kmh WNW 16.1 mph25.9 kmh 29.75 in1007.5 mb 0.00 in0.0 mm 0.00 in0.0 mm 0.00 in0.0 mm
05:20 PM 67.2°F19.6°C 51.4°F10.8°C 57% 11.0 mph W17.7 kmh W 16.1 mph25.9 kmh 29.75 in1007.5 mb 0.00 in0.0 mm 0.00 in0.0 mm 0.00 in0.0 mm
05:25 PM 66.7°F19.3°C 50.9°F10.5°C 57% 13.0 mph W20.9 kmh W 22.9 mph36.9 kmh 29.75 in1007.5 mb 0.00 in0.0 mm 0.00 in0.0 mm 0.00 in0.0 mm
05:30 PM 66.3°F19.1°C 51.1°F10.6°C 58% 13.1 mph W21.1 kmh W 22.9 mph36.9 kmh 29.75 in1007.5 mb 0.00 in0.0 mm 0.00 in0.0 mm 0.00 in0.0 mm
05:35 PM 65.6°F18.7°C 50.4°F10.2°C 58% 11.4 mph W18.3 kmh W 20.2 mph32.5 kmh 29.75 in1007.5 mb 0.00 in0.0 mm 0.00 in0.0 mm 0.00 in0.0 mm
05:40 PM 65.2°F18.4°C 50.5°F10.3°C 59% 12.8 mph W20.6 kmh W 21.4 mph34.4 kmh 29.75 in1007.5 mb 0.00 in0.0 mm 0.00 in0.0 mm 0.00 in0.0 mm
05:45 PM 64.7°F18.2°C 50.5°F10.3°C 60% 13.0 mph W20.9 kmh W 21.4 mph34.4 kmh 29.75 in1007.5 mb 0.00 in0.0 mm 0.00 in0.0 mm 0.00 in0.0 mm
05:50 PM 64.7°F18.2°C 50.5°F10.3°C 60% 12.7 mph W20.4 kmh W 17.3 mph27.8 kmh 29.75 in1007.5 mb 0.00 in0.0 mm 0.00 in0.0 mm 0.00 in0.0 mm
05:55 PM 64.7°F18.2°C 50.5°F10.3°C 60% 11.4 mph W18.3 kmh W 17.3 mph27.8 kmh 29.75 in1007.5 mb 0.00 in0.0 mm 0.00 in0.0 mm 0.00 in0.0 mm
06:00 PM 64.8°F18.2°C 50.6°F10.3°C 60% 10.5 mph W16.9 kmh W 16.7 mph26.9 kmh 29.75 in1007.5 mb 0.00 in0.0 mm 0.00 in0.0 mm 0.00 in0.0 mm
06:05 PM 64.8°F18.2°C 51.1°F10.6°C 61% 11.1 mph W17.9 kmh W 15.8 mph25.4 kmh 29.75 in1007.5 mb 0.00 in0.0 mm 0.00 in0.0 mm 0.00 in0.0 mm
06:10 PM 64.5°F18.1°C 50.7°F10.4°C 61% 10.8 mph W17.4 kmh W 15.8 mph25.4 kmh 29.75 in1007.5 mb 0.00 in0.0 mm 0.00 in0.0 mm 0.00 in0.0 mm
06:15 PM 64.5°F18.1°C 50.3°F10.2°C 60% 11.9 mph W19.2 kmh W 16.1 mph25.9 kmh 29.75 in1007.5 mb 0.00 in0.0 mm 0.00 in0.0 mm 0.00 in0.0 mm
06:20 PM 64.5°F18.1°C 50.3°F10.2°C 60% 12.8 mph W20.6 kmh W 16.7 mph26.9 kmh 29.75 in1007.5 mb 0.00 in0.0 mm 0.00 in0.0 mm 0.00 in0.0 mm
06:25 PM 64.5°F18.1°C 50.3°F10.2°C 60% 12.6 mph W20.3 kmh W 16.7 mph26.9 kmh 29.75 in1007.5 mb 0.00 in0.0 mm 0.00 in0.0 mm 0.00 in0.0 mm
06:30 PM 64.1°F17.8°C 50.0°F10.0°C 60% 10.2 mph W16.4 kmh W 16.4 mph26.4 kmh 29.75 in1007.5 mb 0.00 in0.0 mm 0.00 in0.0 mm 0.00 in0.0 mm
06:35 PM 64.0°F17.8°C 49.8°F9.9°C 60% 10.6 mph W17.1 kmh W 16.7 mph26.9 kmh 29.75 in1007.5 mb 0.00 in0.0 mm 0.00 in0.0 mm 0.00 in0.0 mm
06:40 PM 63.8°F17.7°C 49.6°F9.8°C 60% 11.1 mph W17.9 kmh W 16.7 mph26.9 kmh 29.75 in1007.5 mb 0.00 in0.0 mm 0.00 in0.0 mm 0.00 in0.0 mm
06:45 PM 63.6°F17.6°C 49.4°F9.7°C 60% 10.0 mph W16.1 kmh W 14.0 mph22.5 kmh 29.75 in1007.5 mb 0.00 in0.0 mm 0.00 in0.0 mm 0.00 in0.0 mm
06:50 PM 63.2°F17.3°C 49.1°F9.5°C 60% 11.0 mph W17.7 kmh W 14.3 mph23.0 kmh 29.75 in1007.5 mb 0.00 in0.0 mm 0.00 in0.0 mm 0.00 in0.0 mm
06:55 PM 63.2°F17.3°C 49.1°F9.5°C 60% 10.9 mph W17.5 kmh W 14.6 mph23.5 kmh 29.75 in1007.5 mb 0.00 in0.0 mm 0.00 in0.0 mm 0.00 in0.0 mm
07:00 PM 62.9°F17.2°C 49.2°F9.6°C 61% 12.6 mph WNW20.3 kmh WNW 17.6 mph28.3 kmh 29.75 in1007.5 mb 0.00 in0.0 mm 0.00 in0.0 mm 0.00 in0.0 mm
07:05 PM 62.7°F17.1°C 49.0°F9.4°C 61% 12.4 mph WNW20.0 kmh WNW 17.6 mph28.3 kmh 29.75 in1007.5 mb 0.00 in0.0 mm 0.00 in0.0 mm 0.00 in0.0 mm
07:10 PM 62.5°F16.9°C 48.9°F9.4°C 61% 12.0 mph WNW19.3 kmh WNW 16.1 mph25.9 kmh 29.75 in1007.5 mb 0.00 in0.0 mm 0.00 in0.0 mm 0.00 in0.0 mm
07:15 PM 62.2°F16.8°C 48.5°F9.2°C 61% 12.6 mph WNW20.3 kmh WNW 16.1 mph25.9 kmh 29.75 in1007.5 mb 0.00 in0.0 mm 0.00 in0.0 mm 0.00 in0.0 mm
07:20 PM 62.0°F16.7°C 48.4°F9.1°C 61% 10.9 mph W17.5 kmh W 17.9 mph28.8 kmh 29.75 in1007.5 mb 0.00 in0.0 mm 0.00 in0.0 mm 0.00 in0.0 mm
07:25 PM 62.0°F16.7°C 48.4°F9.1°C 61% 9.2 mph W14.8 kmh W 17.9 mph28.8 kmh 29.75 in1007.5 mb 0.00 in0.0 mm 0.00 in0.0 mm 0.00 in0.0 mm
07:30 PM 62.0°F16.7°C 48.4°F9.1°C 61% 8.2 mph W13.2 kmh W 13.1 mph21.1 kmh 29.75 in1007.5 mb 0.00 in0.0 mm 0.00 in0.0 mm 0.00 in0.0 mm
07:35 PM 61.8°F16.6°C 48.6°F9.2°C 62% 12.4 mph WNW20.0 kmh WNW 21.1 mph34.0 kmh 29.75 in1007.5 mb 0.00 in0.0 mm 0.00 in0.0 mm 0.00 in0.0 mm
07:40 PM 61.6°F16.4°C 48.5°F9.2°C 62% 11.9 mph WNW19.2 kmh WNW 21.1 mph34.0 kmh 29.75 in1007.5 mb 0.00 in0.0 mm 0.00 in0.0 mm 0.00 in0.0 mm
07:45 PM 61.4°F16.3°C 47.9°F8.8°C 61% 11.5 mph W18.5 kmh W 16.1 mph25.9 kmh 29.75 in1007.5 mb 0.00 in0.0 mm 0.00 in0.0 mm 0.00 in0.0 mm
07:50 PM 61.4°F16.3°C 47.9°F8.8°C 61% 11.6 mph W18.7 kmh W 16.1 mph25.9 kmh 29.75 in1007.5 mb 0.00 in0.0 mm 0.00 in0.0 mm 0.00 in0.0 mm
07:55 PM 61.4°F16.3°C 47.9°F8.8°C 61% 10.2 mph W16.4 kmh W 14.0 mph22.5 kmh 29.75 in1007.5 mb 0.00 in0.0 mm 0.00 in0.0 mm 0.00 in0.0 mm
08:00 PM 61.4°F16.3°C 47.9°F8.8°C 61% 11.2 mph W18.0 kmh W 14.0 mph22.5 kmh 29.75 in1007.5 mb 0.00 in0.0 mm 0.00 in0.0 mm 0.00 in0.0 mm
08:05 PM 61.3°F16.3°C 48.1°F8.9°C 62% 11.8 mph WNW19.0 kmh WNW 17.3 mph27.8 kmh 29.75 in1007.5 mb 0.00 in0.0 mm 0.00 in0.0 mm 0.00 in0.0 mm
08:10 PM 61.3°F16.3°C 48.1°F8.9°C 62% 11.5 mph WNW18.5 kmh WNW 17.3 mph27.8 kmh 29.75 in1007.5 mb 0.00 in0.0 mm 0.00 in0.0 mm 0.00 in0.0 mm
08:15 PM 61.1°F16.2°C 47.9°F8.8°C 62% 12.6 mph W20.3 kmh W 20.2 mph32.5 kmh 29.75 in1007.5 mb 0.00 in0.0 mm 0.00 in0.0 mm 0.00 in0.0 mm
08:20 PM 61.1°F16.2°C 47.9°F8.8°C 62% 11.8 mph W19.0 kmh W 20.2 mph32.5 kmh 29.75 in1007.5 mb 0.00 in0.0 mm 0.00 in0.0 mm 0.00 in0.0 mm
08:25 PM 61.1°F16.2°C 47.9°F8.8°C 62% 11.0 mph W17.7 kmh W 17.6 mph28.3 kmh 29.75 in1007.5 mb 0.00 in0.0 mm 0.00 in0.0 mm 0.00 in0.0 mm
08:30 PM 60.9°F16.1°C 47.8°F8.8°C 62% 9.7 mph W15.6 kmh W 17.6 mph28.3 kmh 29.75 in1007.5 mb 0.00 in0.0 mm 0.00 in0.0 mm 0.00 in0.0 mm
08:35 PM 60.9°F16.1°C 48.2°F9.0°C 63% 8.6 mph WNW13.8 kmh WNW 13.4 mph21.6 kmh 29.75 in1007.5 mb 0.00 in0.0 mm 0.00 in0.0 mm 0.00 in0.0 mm
08:40 PM 60.7°F15.9°C 48.0°F8.9°C 63% 8.3 mph WNW13.4 kmh WNW 13.4 mph21.6 kmh 29.75 in1007.5 mb 0.00 in0.0 mm 0.00 in0.0 mm 0.00 in0.0 mm
08:45 PM 60.7°F15.9°C 48.0°F8.9°C 63% 9.7 mph W15.6 kmh W 15.8 mph25.4 kmh 29.75 in1007.5 mb 0.00 in0.0 mm 0.00 in0.0 mm 0.00 in0.0 mm
08:50 PM 60.7°F15.9°C 48.0°F8.9°C 63% 11.4 mph W18.3 kmh W 15.8 mph25.4 kmh 29.75 in1007.5 mb 0.00 in0.0 mm 0.00 in0.0 mm 0.00 in0.0 mm
08:55 PM 60.5°F15.8°C 48.3°F9.1°C 64% 9.8 mph WNW15.8 kmh WNW 18.1 mph29.1 kmh 29.75 in1007.5 mb 0.00 in0.0 mm 0.00 in0.0 mm 0.00 in0.0 mm
09:00 PM 60.5°F15.8°C 48.3°F9.1°C 64% 9.7 mph W15.6 kmh W 18.1 mph29.1 kmh 29.75 in1007.5 mb 0.00 in0.0 mm 0.00 in0.0 mm 0.00 in0.0 mm
09:05 PM 60.5°F15.8°C 48.3°F9.1°C 64% 10.2 mph WNW16.4 kmh WNW 18.1 mph29.1 kmh 29.75 in1007.5 mb 0.00 in0.0 mm 0.00 in0.0 mm 0.00 in0.0 mm
09:10 PM 60.5°F15.8°C 48.3°F9.1°C 64% 10.1 mph NW16.3 kmh NW 15.2 mph24.5 kmh 29.75 in1007.5 mb 0.00 in0.0 mm 0.00 in0.0 mm 0.00 in0.0 mm
09:15 PM 60.3°F15.7°C 48.1°F8.9°C 64% 8.7 mph WNW14.0 kmh WNW 14.3 mph23.0 kmh 29.75 in1007.5 mb 0.00 in0.0 mm 0.00 in0.0 mm 0.00 in0.0 mm
09:20 PM 60.3°F15.7°C 48.1°F8.9°C 64% 8.1 mph NW13.0 kmh NW 14.0 mph22.5 kmh 29.75 in1007.5 mb 0.00 in0.0 mm 0.00 in0.0 mm 0.00 in0.0 mm
09:25 PM 60.2°F15.7°C 47.9°F8.8°C 64% 6.8 mph NW10.9 kmh NW 14.0 mph22.5 kmh 29.75 in1007.5 mb 0.00 in0.0 mm 0.00 in0.0 mm 0.00 in0.0 mm
09:30 PM 60.2°F15.7°C 48.4°F9.1°C 65% 6.4 mph WNW10.3 kmh WNW 10.4 mph16.7 kmh 29.75 in1007.5 mb 0.00 in0.0 mm 0.00 in0.0 mm 0.00 in0.0 mm
09:35 PM 60.0°F15.6°C 48.2°F9.0°C 65% 8.3 mph WNW13.4 kmh WNW 16.4 mph26.4 kmh 29.78 in1008.5 mb 0.00 in0.0 mm 0.00 in0.0 mm 0.00 in0.0 mm
09:40 PM 59.8°F15.4°C 48.0°F8.9°C 65% 7.1 mph WNW11.4 kmh WNW 16.4 mph26.4 kmh 29.78 in1008.5 mb 0.00 in0.0 mm 0.00 in0.0 mm 0.00 in0.0 mm
09:45 PM 59.6°F15.3°C 47.8°F8.8°C 65% 5.4 mph NW8.7 kmh NW 11.3 mph18.2 kmh 29.78 in1008.5 mb 0.00 in0.0 mm 0.00 in0.0 mm 0.00 in0.0 mm
09:50 PM 59.6°F15.3°C 47.8°F8.8°C 65% 7.2 mph WNW11.6 kmh WNW 13.4 mph21.6 kmh 29.78 in1008.5 mb 0.00 in0.0 mm 0.00 in0.0 mm 0.00 in0.0 mm
09:55 PM 59.5°F15.3°C 48.1°F8.9°C 66% 8.8 mph WNW14.2 kmh WNW 13.4 mph21.6 kmh 29.78 in1008.5 mb 0.00 in0.0 mm 0.00 in0.0 mm 0.00 in0.0 mm
10:00 PM 59.5°F15.3°C 48.1°F8.9°C 66% 8.1 mph WNW13.0 kmh WNW 13.4 mph21.6 kmh 29.78 in1008.5 mb 0.00 in0.0 mm 0.00 in0.0 mm 0.00 in0.0 mm
10:05 PM 59.3°F15.2°C 47.9°F8.8°C 66% 7.6 mph W12.2 kmh W 13.1 mph21.1 kmh 29.78 in1008.5 mb 0.00 in0.0 mm 0.00 in0.0 mm 0.00 in0.0 mm
10:10 PM 59.1°F15.1°C 47.7°F8.7°C 66% 7.4 mph WNW11.9 kmh WNW 13.1 mph21.1 kmh 29.78 in1008.5 mb 0.00 in0.0 mm 0.00 in0.0 mm 0.00 in0.0 mm
10:15 PM 58.9°F14.9°C 47.6°F8.7°C 66% 7.4 mph NW11.9 kmh NW 10.4 mph16.7 kmh 29.78 in1008.5 mb 0.00 in0.0 mm 0.00 in0.0 mm 0.00 in0.0 mm
10:20 PM 58.9°F14.9°C 47.6°F8.7°C 66% 7.0 mph WNW11.3 kmh WNW 11.6 mph18.7 kmh 29.75 in1007.5 mb 0.00 in0.0 mm 0.00 in0.0 mm 0.00 in0.0 mm
10:25 PM 58.9°F14.9°C 47.6°F8.7°C 66% 6.6 mph NW10.6 kmh NW 11.6 mph18.7 kmh 29.75 in1007.5 mb 0.00 in0.0 mm 0.00 in0.0 mm 0.00 in0.0 mm
10:30 PM 58.5°F14.7°C 47.6°F8.7°C 67% 6.6 mph WNW10.6 kmh WNW 11.6 mph18.7 kmh 29.75 in1007.5 mb 0.00 in0.0 mm 0.00 in0.0 mm 0.00 in0.0 mm
10:35 PM 58.4°F14.7°C 47.5°F8.6°C 67% 4.6 mph NW7.4 kmh NW 7.1 mph11.4 kmh 29.75 in1007.5 mb 0.00 in0.0 mm 0.00 in0.0 mm 0.00 in0.0 mm
10:40 PM 58.2°F14.6°C 47.3°F8.5°C 67% 4.9 mph NW7.9 kmh NW 8.6 mph13.8 kmh 29.75 in1007.5 mb 0.00 in0.0 mm 0.00 in0.0 mm 0.00 in0.0 mm
10:45 PM 58.2°F14.6°C 47.3°F8.5°C 67% 5.3 mph NNW8.5 kmh NNW 8.6 mph13.8 kmh 29.75 in1007.5 mb 0.00 in0.0 mm 0.00 in0.0 mm 0.00 in0.0 mm
10:50 PM 58.0°F14.4°C 47.1°F8.4°C 67% 3.6 mph NW5.8 kmh NW 7.1 mph11.4 kmh 29.75 in1007.5 mb 0.00 in0.0 mm 0.00 in0.0 mm 0.00 in0.0 mm
10:55 PM 58.0°F14.4°C 47.1°F8.4°C 67% 4.1 mph NW6.6 kmh NW 7.7 mph12.4 kmh 29.75 in1007.5 mb 0.00 in0.0 mm 0.00 in0.0 mm 0.00 in0.0 mm
11:00 PM 57.8°F14.3°C 46.9°F8.3°C 67% 4.4 mph NW7.1 kmh NW 7.7 mph12.4 kmh 29.75 in1007.5 mb 0.00 in0.0 mm 0.00 in0.0 mm 0.00 in0.0 mm
11:05 PM 57.7°F14.3°C 46.8°F8.2°C 67% 5.2 mph WNW8.4 kmh WNW 10.4 mph16.7 kmh 29.78 in1008.5 mb 0.00 in0.0 mm 0.00 in0.0 mm 0.00 in0.0 mm
11:10 PM 57.5°F14.2°C 46.6°F8.1°C 67% 6.0 mph WNW9.7 kmh WNW 10.4 mph16.7 kmh 29.78 in1008.5 mb 0.00 in0.0 mm 0.00 in0.0 mm 0.00 in0.0 mm
11:15 PM 57.5°F14.2°C 46.6°F8.1°C 67% 3.9 mph NW6.3 kmh NW 5.4 mph8.7 kmh 29.78 in1008.5 mb 0.00 in0.0 mm 0.00 in0.0 mm 0.00 in0.0 mm
11:20 PM 57.5°F14.2°C 47.0°F8.3°C 68% 4.0 mph NW6.4 kmh NW 6.2 mph10.0 kmh 29.78 in1008.5 mb 0.00 in0.0 mm 0.00 in0.0 mm 0.00 in0.0 mm
11:25 PM 57.7°F14.3°C 47.2°F8.4°C 68% 4.2 mph NW6.8 kmh NW 6.2 mph10.0 kmh 29.78 in1008.5 mb 0.00 in0.0 mm 0.00 in0.0 mm 0.00 in0.0 mm
11:30 PM 57.7°F14.3°C 47.2°F8.4°C 68% 4.6 mph NW7.4 kmh NW 8.0 mph12.9 kmh 29.78 in1008.5 mb 0.00 in0.0 mm 0.00 in0.0 mm 0.00 in0.0 mm
11:35 PM 57.8°F14.3°C 47.3°F8.5°C 68% 5.1 mph NW8.2 kmh NW 8.0 mph12.9 kmh 29.78 in1008.5 mb 0.00 in0.0 mm 0.00 in0.0 mm 0.00 in0.0 mm
11:40 PM 57.8°F14.3°C 47.3°F8.5°C 68% 4.9 mph NW7.9 kmh NW 7.7 mph12.4 kmh 29.78 in1008.5 mb 0.00 in0.0 mm 0.00 in0.0 mm 0.00 in0.0 mm
11:45 PM 58.0°F14.4°C 47.5°F8.6°C 68% 5.0 mph NW8.0 kmh NW 7.7 mph12.4 kmh 29.78 in1008.5 mb 0.00 in0.0 mm 0.00 in0.0 mm 0.00 in0.0 mm
11:50 PM 58.2°F14.6°C 47.7°F8.7°C 68% 5.1 mph NW8.2 kmh NW 8.0 mph12.9 kmh 29.78 in1008.5 mb 0.00 in0.0 mm 0.00 in0.0 mm 0.00 in0.0 mm
11:55 PM 58.4°F14.7°C 47.8°F8.8°C 68% 4.5 mph WNW7.2 kmh WNW 8.0 mph12.9 kmh 29.78 in1008.5 mb 0.00 in0.0 mm 0.00 in0.0 mm 0.00 in0.0 mm